sensor_id;sensor_type;location;lat;lon;timestamp;temperature;humidity
9497;DHT22;4786;51.270;4.456;2022-09-09T00:04:32;16.70;99.90
9497;DHT22;4786;51.270;4.456;2022-09-09T00:07:18;16.70;99.90
9497;DHT22;4786;51.270;4.456;2022-09-09T00:15:22;16.60;99.90
9497;DHT22;4786;51.270;4.456;2022-09-09T00:18:10;16.60;99.90
9497;DHT22;4786;51.270;4.456;2022-09-09T00:21:05;16.50;99.90
9497;DHT22;4786;51.270;4.456;2022-09-09T00:23:49;16.50;99.90
9497;DHT22;4786;51.270;4.456;2022-09-09T00:31:34;16.40;99.90
9497;DHT22;4786;51.270;4.456;2022-09-09T00:34:10;16.40;99.90
9497;DHT22;4786;51.270;4.456;2022-09-09T00:36:38;16.50;99.90
9497;DHT22;4786;51.270;4.456;2022-09-09T00:39:05;16.40;99.90
9497;DHT22;4786;51.270;4.456;2022-09-09T00:41:56;16.40;99.90
9497;DHT22;4786;51.270;4.456;2022-09-09T00:44:32;16.50;99.90
9497;DHT22;4786;51.270;4.456;2022-09-09T00:47:17;16.40;99.90
9497;DHT22;4786;51.270;4.456;2022-09-09T00:53:11;16.40;99.90
9497;DHT22;4786;51.270;4.456;2022-09-09T00:55:49;16.40;99.90
9497;DHT22;4786;51.270;4.456;2022-09-09T00:58:16;16.40;99.90
9497;DHT22;4786;51.270;4.456;2022-09-09T01:00:57;16.40;99.90
9497;DHT22;4786;51.270;4.456;2022-09-09T01:12:15;16.30;99.90
9497;DHT22;4786;51.270;4.456;2022-09-09T01:15:04;16.40;99.90
9497;DHT22;4786;51.270;4.456;2022-09-09T01:17:34;16.40;99.90
9497;DHT22;4786;51.270;4.456;2022-09-09T01:27:53;16.30;99.90
9497;DHT22;4786;51.270;4.456;2022-09-09T01:30:21;16.30;99.90
9497;DHT22;4786;51.270;4.456;2022-09-09T01:32:55;16.20;99.90
9497;DHT22;4786;51.270;4.456;2022-09-09T01:37:55;16.20;99.90
9497;DHT22;4786;51.270;4.456;2022-09-09T01:40:22;16.20;99.90
9497;DHT22;4786;51.270;4.456;2022-09-09T01:42:48;16.10;99.90
9497;DHT22;4786;51.270;4.456;2022-09-09T01:45:14;16.20;99.90
9497;DHT22;4786;51.270;4.456;2022-09-09T01:47:41;16.20;99.90
9497;DHT22;4786;51.270;4.456;2022-09-09T01:50:08;16.10;99.90
9497;DHT22;4786;51.270;4.456;2022-09-09T01:52:36;16.10;99.90
9497;DHT22;4786;51.270;4.456;2022-09-09T01:55:03;16.10;99.90
9497;DHT22;4786;51.270;4.456;2022-09-09T02:00:24;16.10;99.90
9497;DHT22;4786;51.270;4.456;2022-09-09T02:05:36;16.10;99.90
9497;DHT22;4786;51.270;4.456;2022-09-09T02:08:11;16.10;99.90
9497;DHT22;4786;51.270;4.456;2022-09-09T02:13:14;16.10;99.90
9497;DHT22;4786;51.270;4.456;2022-09-09T02:18:42;16.10;99.90
9497;DHT22;4786;51.270;4.456;2022-09-09T02:21:12;16.00;99.90
9497;DHT22;4786;51.270;4.456;2022-09-09T02:23:41;15.90;99.90
9497;DHT22;4786;51.270;4.456;2022-09-09T02:26:09;15.90;99.90
9497;DHT22;4786;51.270;4.456;2022-09-09T02:28:37;15.90;99.90
9497;DHT22;4786;51.270;4.456;2022-09-09T02:31:04;15.80;99.90
9497;DHT22;4786;51.270;4.456;2022-09-09T02:33:35;15.80;99.90
9497;DHT22;4786;51.270;4.456;2022-09-09T02:36:03;15.80;99.90
9497;DHT22;4786;51.270;4.456;2022-09-09T02:38:36;15.80;99.90
9497;DHT22;4786;51.270;4.456;2022-09-09T02:41:03;15.90;99.90
9497;DHT22;4786;51.270;4.456;2022-09-09T02:43:33;15.80;99.90
9497;DHT22;4786;51.270;4.456;2022-09-09T02:46:22;15.70;99.90
9497;DHT22;4786;51.270;4.456;2022-09-09T02:51:40;15.80;99.90
9497;DHT22;4786;51.270;4.456;2022-09-09T02:54:30;15.80;99.90
9497;DHT22;4786;51.270;4.456;2022-09-09T02:57:10;15.80;99.90
9497;DHT22;4786;51.270;4.456;2022-09-09T02:59:37;15.80;99.90
9497;DHT22;4786;51.270;4.456;2022-09-09T03:02:04;15.80;99.90
9497;DHT22;4786;51.270;4.456;2022-09-09T03:04:29;15.80;99.90
9497;DHT22;4786;51.270;4.456;2022-09-09T03:06:57;15.80;99.90
9497;DHT22;4786;51.270;4.456;2022-09-09T03:09:23;15.80;99.90
9497;DHT22;4786;51.270;4.456;2022-09-09T03:11:49;15.80;99.90
9497;DHT22;4786;51.270;4.456;2022-09-09T03:14:15;15.70;99.90
9497;DHT22;4786;51.270;4.456;2022-09-09T03:16:41;15.70;99.90
9497;DHT22;4786;51.270;4.456;2022-09-09T03:19:08;15.70;99.90
9497;DHT22;4786;51.270;4.456;2022-09-09T03:21:34;15.80;99.90
9497;DHT22;4786;51.270;4.456;2022-09-09T03:24:01;15.80;99.90
9497;DHT22;4786;51.270;4.456;2022-09-09T03:26:29;15.80;99.90
9497;DHT22;4786;51.270;4.456;2022-09-09T03:28:56;15.90;99.90
9497;DHT22;4786;51.270;4.456;2022-09-09T03:31:22;15.80;99.90
9497;DHT22;4786;51.270;4.456;2022-09-09T03:33:48;15.80;99.90
9497;DHT22;4786;51.270;4.456;2022-09-09T03:36:14;15.70;99.90
9497;DHT22;4786;51.270;4.456;2022-09-09T03:38:40;15.80;99.90
9497;DHT22;4786;51.270;4.456;2022-09-09T03:41:06;15.70;99.90
9497;DHT22;4786;51.270;4.456;2022-09-09T03:43:34;15.80;99.90
9497;DHT22;4786;51.270;4.456;2022-09-09T03:46:00;15.80;99.90
9497;DHT22;4786;51.270;4.456;2022-09-09T03:48:26;15.80;99.90
9497;DHT22;4786;51.270;4.456;2022-09-09T03:50:54;15.80;99.90
9497;DHT22;4786;51.270;4.456;2022-09-09T03:53:23;15.80;99.90
9497;DHT22;4786;51.270;4.456;2022-09-09T03:55:52;15.80;99.90
9497;DHT22;4786;51.270;4.456;2022-09-09T03:58:20;15.80;99.90
9497;DHT22;4786;51.270;4.456;2022-09-09T04:03:19;15.80;99.90
9497;DHT22;4786;51.270;4.456;2022-09-09T04:05:45;15.80;99.90
9497;DHT22;4786;51.270;4.456;2022-09-09T04:08:14;16.00;99.90
9497;DHT22;4786;51.270;4.456;2022-09-09T04:10:40;15.80;99.90
9497;DHT22;4786;51.270;4.456;2022-09-09T04:13:07;15.80;99.90
9497;DHT22;4786;51.270;4.456;2022-09-09T04:15:33;15.80;99.90
9497;DHT22;4786;51.270;4.456;2022-09-09T04:18:00;15.80;99.90
9497;DHT22;4786;51.270;4.456;2022-09-09T04:20:27;15.80;99.90
9497;DHT22;4786;51.270;4.456;2022-09-09T04:22:52;15.80;99.90
9497;DHT22;4786;51.270;4.456;2022-09-09T04:25:18;15.90;99.90
9497;DHT22;4786;51.270;4.456;2022-09-09T04:27:44;15.90;99.90
9497;DHT22;4786;51.270;4.456;2022-09-09T04:30:11;15.90;99.90
9497;DHT22;4786;51.270;4.456;2022-09-09T04:32:37;15.90;99.90
9497;DHT22;4786;51.270;4.456;2022-09-09T04:35:04;16.00;99.90
9497;DHT22;4786;51.270;4.456;2022-09-09T04:37:29;16.00;99.90
9497;DHT22;4786;51.270;4.456;2022-09-09T04:39:55;16.00;99.90
9497;DHT22;4786;51.270;4.456;2022-09-09T04:42:21;16.00;99.90
9497;DHT22;4786;51.270;4.456;2022-09-09T04:44:47;16.00;99.90
9497;DHT22;4786;51.270;4.456;2022-09-09T04:47:13;15.90;99.90
9497;DHT22;4786;51.270;4.456;2022-09-09T04:49:39;15.90;99.90
9497;DHT22;4786;51.270;4.456;2022-09-09T04:52:05;15.90;99.90
9497;DHT22;4786;51.270;4.456;2022-09-09T04:54:30;15.90;99.90
9497;DHT22;4786;51.270;4.456;2022-09-09T04:56:57;15.90;99.90
9497;DHT22;4786;51.270;4.456;2022-09-09T04:59:22;15.90;99.90
9497;DHT22;4786;51.270;4.456;2022-09-09T05:01:48;15.90;99.90
9497;DHT22;4786;51.270;4.456;2022-09-09T05:04:16;15.90;99.90
9497;DHT22;4786;51.270;4.456;2022-09-09T05:06:42;15.90;99.90
9497;DHT22;4786;51.270;4.456;2022-09-09T05:09:09;15.90;99.90
9497;DHT22;4786;51.270;4.456;2022-09-09T05:11:35;15.90;99.90
9497;DHT22;4786;51.270;4.456;2022-09-09T05:14:02;15.90;99.90
9497;DHT22;4786;51.270;4.456;2022-09-09T05:16:28;15.90;99.90
9497;DHT22;4786;51.270;4.456;2022-09-09T05:18:55;15.90;99.90
9497;DHT22;4786;51.270;4.456;2022-09-09T05:21:23;16.00;99.90
9497;DHT22;4786;51.270;4.456;2022-09-09T05:23:51;16.00;99.90
9497;DHT22;4786;51.270;4.456;2022-09-09T05:26:19;16.10;99.90
9497;DHT22;4786;51.270;4.456;2022-09-09T05:28:46;16.00;99.90
9497;DHT22;4786;51.270;4.456;2022-09-09T05:31:13;16.10;99.90
9497;DHT22;4786;51.270;4.456;2022-09-09T05:33:40;16.10;99.90
9497;DHT22;4786;51.270;4.456;2022-09-09T05:36:13;16.10;99.90
9497;DHT22;4786;51.270;4.456;2022-09-09T05:38:40;16.30;99.90
9497;DHT22;4786;51.270;4.456;2022-09-09T05:41:07;16.20;99.90
9497;DHT22;4786;51.270;4.456;2022-09-09T05:43:33;16.30;99.90
9497;DHT22;4786;51.270;4.456;2022-09-09T05:46:08;16.30;99.90
9497;DHT22;4786;51.270;4.456;2022-09-09T05:48:37;16.30;99.90
9497;DHT22;4786;51.270;4.456;2022-09-09T05:51:04;16.40;99.90
9497;DHT22;4786;51.270;4.456;2022-09-09T05:53:31;16.40;99.90
9497;DHT22;4786;51.270;4.456;2022-09-09T05:56:13;16.50;99.90
9497;DHT22;4786;51.270;4.456;2022-09-09T05:58:40;16.50;99.90
9497;DHT22;4786;51.270;4.456;2022-09-09T06:01:06;16.50;99.90
9497;DHT22;4786;51.270;4.456;2022-09-09T06:03:37;16.70;99.90
9497;DHT22;4786;51.270;4.456;2022-09-09T06:06:05;16.70;99.90
9497;DHT22;4786;51.270;4.456;2022-09-09T06:08:36;16.80;99.90
9497;DHT22;4786;51.270;4.456;2022-09-09T06:11:17;16.70;99.90
9497;DHT22;4786;51.270;4.456;2022-09-09T06:13:44;16.70;99.90
9497;DHT22;4786;51.270;4.456;2022-09-09T06:16:16;16.70;99.90
9497;DHT22;4786;51.270;4.456;2022-09-09T06:18:42;16.70;99.90
9497;DHT22;4786;51.270;4.456;2022-09-09T06:23:42;16.80;99.90
9497;DHT22;4786;51.270;4.456;2022-09-09T06:26:12;16.70;99.90
9497;DHT22;4786;51.270;4.456;2022-09-09T06:28:38;16.70;99.90
9497;DHT22;4786;51.270;4.456;2022-09-09T06:31:07;16.80;99.90
9497;DHT22;4786;51.270;4.456;2022-09-09T06:33:35;16.80;99.90
9497;DHT22;4786;51.270;4.456;2022-09-09T06:36:03;16.80;99.90
9497;DHT22;4786;51.270;4.456;2022-09-09T06:38:48;16.80;99.90
9497;DHT22;4786;51.270;4.456;2022-09-09T06:41:17;16.80;99.90
9497;DHT22;4786;51.270;4.456;2022-09-09T06:43:44;16.80;99.90
9497;DHT22;4786;51.270;4.456;2022-09-09T06:46:20;16.90;99.90
9497;DHT22;4786;51.270;4.456;2022-09-09T06:48:53;16.80;99.90
9497;DHT22;4786;51.270;4.456;2022-09-09T06:51:21;16.90;99.90
9497;DHT22;4786;51.270;4.456;2022-09-09T06:53:50;16.90;99.90
9497;DHT22;4786;51.270;4.456;2022-09-09T06:56:17;16.90;99.90
9497;DHT22;4786;51.270;4.456;2022-09-09T06:58:45;16.90;99.90
9497;DHT22;4786;51.270;4.456;2022-09-09T07:01:12;16.90;99.90
9497;DHT22;4786;51.270;4.456;2022-09-09T07:03:39;17.00;99.90
9497;DHT22;4786;51.270;4.456;2022-09-09T07:06:06;17.10;99.90
9497;DHT22;4786;51.270;4.456;2022-09-09T07:08:33;17.10;99.90
9497;DHT22;4786;51.270;4.456;2022-09-09T07:11:08;17.00;99.90
9497;DHT22;4786;51.270;4.456;2022-09-09T07:13:35;16.90;99.90
9497;DHT22;4786;51.270;4.456;2022-09-09T07:16:13;17.00;99.90
9497;DHT22;4786;51.270;4.456;2022-09-09T07:18:40;17.10;99.90
9497;DHT22;4786;51.270;4.456;2022-09-09T07:21:07;17.10;99.90
9497;DHT22;4786;51.270;4.456;2022-09-09T07:23:34;17.30;99.90
9497;DHT22;4786;51.270;4.456;2022-09-09T07:26:01;17.50;99.90
9497;DHT22;4786;51.270;4.456;2022-09-09T07:28:27;17.60;99.90
9497;DHT22;4786;51.270;4.456;2022-09-09T07:31:02;17.60;99.90
9497;DHT22;4786;51.270;4.456;2022-09-09T07:33:29;17.60;99.90
9497;DHT22;4786;51.270;4.456;2022-09-09T07:36:03;17.50;99.90
9497;DHT22;4786;51.270;4.456;2022-09-09T07:38:30;17.50;99.90
9497;DHT22;4786;51.270;4.456;2022-09-09T07:41:04;17.60;99.90
9497;DHT22;4786;51.270;4.456;2022-09-09T07:43:30;17.50;99.90
9497;DHT22;4786;51.270;4.456;2022-09-09T07:46:00;17.50;99.90
9497;DHT22;4786;51.270;4.456;2022-09-09T07:48:29;17.50;99.90
9497;DHT22;4786;51.270;4.456;2022-09-09T07:51:10;17.50;99.90
9497;DHT22;4786;51.270;4.456;2022-09-09T07:53:37;17.40;99.90
9497;DHT22;4786;51.270;4.456;2022-09-09T07:56:09;17.50;99.90
9497;DHT22;4786;51.270;4.456;2022-09-09T07:58:37;17.50;99.90
9497;DHT22;4786;51.270;4.456;2022-09-09T08:01:11;17.60;99.90
9497;DHT22;4786;51.270;4.456;2022-09-09T08:03:37;17.60;99.90
9497;DHT22;4786;51.270;4.456;2022-09-09T08:06:05;17.70;99.90
9497;DHT22;4786;51.270;4.456;2022-09-09T08:08:33;17.70;99.90
9497;DHT22;4786;51.270;4.456;2022-09-09T08:11:11;17.70;99.90
9497;DHT22;4786;51.270;4.456;2022-09-09T08:13:38;17.70;99.90
9497;DHT22;4786;51.270;4.456;2022-09-09T08:16:12;17.70;99.90
9497;DHT22;4786;51.270;4.456;2022-09-09T08:18:39;17.70;99.90
9497;DHT22;4786;51.270;4.456;2022-09-09T08:23:32;17.60;99.90
9497;DHT22;4786;51.270;4.456;2022-09-09T08:26:16;17.60;99.90
9497;DHT22;4786;51.270;4.456;2022-09-09T08:28:44;17.60;99.90
9497;DHT22;4786;51.270;4.456;2022-09-09T08:31:14;17.70;99.90
9497;DHT22;4786;51.270;4.456;2022-09-09T08:33:41;17.70;99.90
9497;DHT22;4786;51.270;4.456;2022-09-09T08:36:10;17.70;99.90
9497;DHT22;4786;51.270;4.456;2022-09-09T08:38:37;17.80;99.90
9497;DHT22;4786;51.270;4.456;2022-09-09T08:44:08;17.90;99.90
9497;DHT22;4786;51.270;4.456;2022-09-09T08:46:44;17.90;99.90
9497;DHT22;4786;51.270;4.456;2022-09-09T08:49:46;17.90;99.90
9497;DHT22;4786;51.270;4.456;2022-09-09T08:52:39;17.90;99.90
9497;DHT22;4786;51.270;4.456;2022-09-09T08:58:25;18.00;99.90
9497;DHT22;4786;51.270;4.456;2022-09-09T09:09:26;18.20;99.90
9497;DHT22;4786;51.270;4.456;2022-09-09T09:11:58;18.20;99.90
9497;DHT22;4786;51.270;4.456;2022-09-09T09:14:30;18.20;99.90
9497;DHT22;4786;51.270;4.456;2022-09-09T09:16:57;18.30;99.90
9497;DHT22;4786;51.270;4.456;2022-09-09T09:19:24;18.20;99.90
9497;DHT22;4786;51.270;4.456;2022-09-09T09:27:32;18.10;99.90
9497;DHT22;4786;51.270;4.456;2022-09-09T09:30:00;18.00;99.90
9497;DHT22;4786;51.270;4.456;2022-09-09T09:32:31;18.10;99.90
9497;DHT22;4786;51.270;4.456;2022-09-09T09:34:58;18.00;99.90
9497;DHT22;4786;51.270;4.456;2022-09-09T09:37:31;17.90;99.90
9497;DHT22;4786;51.270;4.456;2022-09-09T09:40:33;17.90;99.90
9497;DHT22;4786;51.270;4.456;2022-09-09T09:43:00;17.90;99.90
9497;DHT22;4786;51.270;4.456;2022-09-09T09:45:33;17.80;99.90
9497;DHT22;4786;51.270;4.456;2022-09-09T09:48:02;17.80;99.90
9497;DHT22;4786;51.270;4.456;2022-09-09T09:50:29;17.80;99.90
9497;DHT22;4786;51.270;4.456;2022-09-09T09:53:05;17.80;99.90
9497;DHT22;4786;51.270;4.456;2022-09-09T09:55:33;17.80;99.90
9497;DHT22;4786;51.270;4.456;2022-09-09T09:58:06;17.80;99.90
9497;DHT22;4786;51.270;4.456;2022-09-09T10:00:48;17.80;99.90
9497;DHT22;4786;51.270;4.456;2022-09-09T10:05:55;17.90;99.90
9497;DHT22;4786;51.270;4.456;2022-09-09T10:08:23;17.90;99.90
9497;DHT22;4786;51.270;4.456;2022-09-09T10:11:27;17.90;99.90
9497;DHT22;4786;51.270;4.456;2022-09-09T10:14:05;17.90;99.90
9497;DHT22;4786;51.270;4.456;2022-09-09T10:19:15;17.80;99.90
9497;DHT22;4786;51.270;4.456;2022-09-09T10:32:37;18.40;99.90
9497;DHT22;4786;51.270;4.456;2022-09-09T10:51:54;18.90;99.90
9497;DHT22;4786;51.270;4.456;2022-09-09T10:59:52;18.80;99.90
9497;DHT22;4786;51.270;4.456;2022-09-09T11:02:30;18.80;99.90
9497;DHT22;4786;51.270;4.456;2022-09-09T11:05:16;18.80;99.90
9497;DHT22;4786;51.270;4.456;2022-09-09T11:08:02;18.80;99.90
9497;DHT22;4786;51.270;4.456;2022-09-09T11:21:55;18.90;99.90
9497;DHT22;4786;51.270;4.456;2022-09-09T11:24:31;19.00;99.90
9497;DHT22;4786;51.270;4.456;2022-09-09T11:27:25;19.10;99.90
9497;DHT22;4786;51.270;4.456;2022-09-09T11:32:39;19.40;99.90
9497;DHT22;4786;51.270;4.456;2022-09-09T11:38:29;19.70;99.90
9497;DHT22;4786;51.270;4.456;2022-09-09T11:40:59;19.70;99.90
9497;DHT22;4786;51.270;4.456;2022-09-09T11:43:34;19.70;99.90
9497;DHT22;4786;51.270;4.456;2022-09-09T11:46:05;19.70;99.90
9497;DHT22;4786;51.270;4.456;2022-09-09T11:48:41;19.70;99.90
9497;DHT22;4786;51.270;4.456;2022-09-09T11:51:24;19.80;99.90
9497;DHT22;4786;51.270;4.456;2022-09-09T11:53:52;19.90;99.90
9497;DHT22;4786;51.270;4.456;2022-09-09T11:56:43;19.90;99.90
9497;DHT22;4786;51.270;4.456;2022-09-09T11:59:32;20.00;99.90
9497;DHT22;4786;51.270;4.456;2022-09-09T12:02:09;20.00;99.90
9497;DHT22;4786;51.270;4.456;2022-09-09T12:04:40;19.90;99.90
9497;DHT22;4786;51.270;4.456;2022-09-09T12:15:46;20.50;99.90
9497;DHT22;4786;51.270;4.456;2022-09-09T12:17:48;20.70;99.90
9497;DHT22;4786;51.270;4.456;2022-09-09T12:25:16;20.50;99.90
9497;DHT22;4786;51.270;4.456;2022-09-09T12:28:01;20.50;99.90
9497;DHT22;4786;51.270;4.456;2022-09-09T12:30:34;20.50;99.90
9497;DHT22;4786;51.270;4.456;2022-09-09T12:33:11;20.60;99.90
9497;DHT22;4786;51.270;4.456;2022-09-09T12:35:39;20.70;99.90
9497;DHT22;4786;51.270;4.456;2022-09-09T12:38:15;20.80;99.90
9497;DHT22;4786;51.270;4.456;2022-09-09T12:40:56;20.90;99.90
9497;DHT22;4786;51.270;4.456;2022-09-09T12:43:25;21.00;99.90
9497;DHT22;4786;51.270;4.456;2022-09-09T12:45:57;21.00;99.90
9497;DHT22;4786;51.270;4.456;2022-09-09T12:48:46;21.00;99.90
9497;DHT22;4786;51.270;4.456;2022-09-09T12:51:26;21.00;99.90
9497;DHT22;4786;51.270;4.456;2022-09-09T12:53:54;20.90;99.90
9497;DHT22;4786;51.270;4.456;2022-09-09T12:56:30;20.80;99.90
9497;DHT22;4786;51.270;4.456;2022-09-09T12:58:57;20.90;99.90
9497;DHT22;4786;51.270;4.456;2022-09-09T13:01:30;20.80;99.90
9497;DHT22;4786;51.270;4.456;2022-09-09T13:03:56;20.80;99.90
9497;DHT22;4786;51.270;4.456;2022-09-09T13:08:49;21.10;99.90
9497;DHT22;4786;51.270;4.456;2022-09-09T13:11:36;21.30;99.90
9497;DHT22;4786;51.270;4.456;2022-09-09T13:14:04;21.50;99.90
9497;DHT22;4786;51.270;4.456;2022-09-09T13:16:35;21.60;99.90
9497;DHT22;4786;51.270;4.456;2022-09-09T13:19:14;21.70;99.90
9497;DHT22;4786;51.270;4.456;2022-09-09T13:21:41;21.80;99.90
9497;DHT22;4786;51.270;4.456;2022-09-09T13:24:33;21.80;99.90
9497;DHT22;4786;51.270;4.456;2022-09-09T13:27:04;21.70;99.90
9497;DHT22;4786;51.270;4.456;2022-09-09T13:29:51;21.70;99.90
9497;DHT22;4786;51.270;4.456;2022-09-09T13:32:20;21.70;99.90
9497;DHT22;4786;51.270;4.456;2022-09-09T13:34:53;21.70;99.90
9497;DHT22;4786;51.270;4.456;2022-09-09T13:37:38;21.60;99.90
9497;DHT22;4786;51.270;4.456;2022-09-09T13:40:17;21.70;99.90
9497;DHT22;4786;51.270;4.456;2022-09-09T13:42:44;21.70;99.90
9497;DHT22;4786;51.270;4.456;2022-09-09T13:45:22;21.70;99.90
9497;DHT22;4786;51.270;4.456;2022-09-09T13:47:49;21.90;99.90
9497;DHT22;4786;51.270;4.456;2022-09-09T13:50:24;22.00;99.90
9497;DHT22;4786;51.270;4.456;2022-09-09T13:52:58;22.00;99.90
9497;DHT22;4786;51.270;4.456;2022-09-09T13:55:26;22.10;99.90
9497;DHT22;4786;51.270;4.456;2022-09-09T13:58:00;22.00;99.90
9497;DHT22;4786;51.270;4.456;2022-09-09T14:00:30;22.00;99.90
9497;DHT22;4786;51.270;4.456;2022-09-09T14:02:57;22.00;99.90
9497;DHT22;4786;51.270;4.456;2022-09-09T14:05:23;22.00;99.90
9497;DHT22;4786;51.270;4.456;2022-09-09T14:07:50;22.00;99.90
9497;DHT22;4786;51.270;4.456;2022-09-09T14:10:16;21.90;99.90
9497;DHT22;4786;51.270;4.456;2022-09-09T14:12:43;21.80;99.90
9497;DHT22;4786;51.270;4.456;2022-09-09T14:15:11;21.80;99.90
9497;DHT22;4786;51.270;4.456;2022-09-09T14:17:37;21.70;99.90
9497;DHT22;4786;51.270;4.456;2022-09-09T14:20:05;21.70;99.90
9497;DHT22;4786;51.270;4.456;2022-09-09T14:22:35;21.60;99.90
9497;DHT22;4786;51.270;4.456;2022-09-09T14:25:01;21.80;99.90
9497;DHT22;4786;51.270;4.456;2022-09-09T14:27:27;21.90;99.90
9497;DHT22;4786;51.270;4.456;2022-09-09T14:29:53;22.10;99.90
9497;DHT22;4786;51.270;4.456;2022-09-09T14:32:19;22.20;99.90
9497;DHT22;4786;51.270;4.456;2022-09-09T14:34:45;22.30;99.90
9497;DHT22;4786;51.270;4.456;2022-09-09T14:37:11;22.40;99.90
9497;DHT22;4786;51.270;4.456;2022-09-09T14:39:36;22.40;99.90
9497;DHT22;4786;51.270;4.456;2022-09-09T14:42:02;22.30;99.90
9497;DHT22;4786;51.270;4.456;2022-09-09T14:44:28;22.10;99.90
9497;DHT22;4786;51.270;4.456;2022-09-09T14:46:54;22.00;99.90
9497;DHT22;4786;51.270;4.456;2022-09-09T14:49:20;21.90;99.90
9497;DHT22;4786;51.270;4.456;2022-09-09T14:51:46;21.90;99.90
9497;DHT22;4786;51.270;4.456;2022-09-09T14:54:12;22.00;99.90
9497;DHT22;4786;51.270;4.456;2022-09-09T14:56:38;22.10;99.90
9497;DHT22;4786;51.270;4.456;2022-09-09T14:59:04;22.10;99.90
9497;DHT22;4786;51.270;4.456;2022-09-09T15:01:31;22.10;99.90
9497;DHT22;4786;51.270;4.456;2022-09-09T15:04:05;21.90;99.90
9497;DHT22;4786;51.270;4.456;2022-09-09T15:06:32;21.70;99.90
9497;DHT22;4786;51.270;4.456;2022-09-09T15:08:59;21.50;99.90
9497;DHT22;4786;51.270;4.456;2022-09-09T15:11:28;21.40;99.90
9497;DHT22;4786;51.270;4.456;2022-09-09T15:13:56;21.30;99.90
9497;DHT22;4786;51.270;4.456;2022-09-09T15:16:25;21.10;99.90
9497;DHT22;4786;51.270;4.456;2022-09-09T15:18:53;20.90;99.90
9497;DHT22;4786;51.270;4.456;2022-09-09T15:21:23;20.70;99.90
9497;DHT22;4786;51.270;4.456;2022-09-09T15:23:49;20.50;99.90
9497;DHT22;4786;51.270;4.456;2022-09-09T15:26:16;20.50;99.90
9497;DHT22;4786;51.270;4.456;2022-09-09T15:28:43;20.50;99.90
9497;DHT22;4786;51.270;4.456;2022-09-09T15:31:35;20.50;99.90
9497;DHT22;4786;51.270;4.456;2022-09-09T15:34:06;20.40;99.90
9497;DHT22;4786;51.270;4.456;2022-09-09T15:36:38;20.30;99.90
9497;DHT22;4786;51.270;4.456;2022-09-09T15:39:08;20.30;99.90
9497;DHT22;4786;51.270;4.456;2022-09-09T15:41:35;20.30;99.90
9497;DHT22;4786;51.270;4.456;2022-09-09T15:44:01;20.30;99.90
9497;DHT22;4786;51.270;4.456;2022-09-09T15:46:40;20.20;99.90
9497;DHT22;4786;51.270;4.456;2022-09-09T15:49:08;20.20;99.90
9497;DHT22;4786;51.270;4.456;2022-09-09T15:51:42;20.20;99.90
9497;DHT22;4786;51.270;4.456;2022-09-09T15:54:14;20.20;99.90
9497;DHT22;4786;51.270;4.456;2022-09-09T15:56:42;20.20;99.90
9497;DHT22;4786;51.270;4.456;2022-09-09T15:59:08;20.20;99.90
9497;DHT22;4786;51.270;4.456;2022-09-09T16:01:35;20.20;99.90
9497;DHT22;4786;51.270;4.456;2022-09-09T16:04:01;20.20;99.90
9497;DHT22;4786;51.270;4.456;2022-09-09T16:06:33;20.20;99.90
9497;DHT22;4786;51.270;4.456;2022-09-09T16:08:59;20.20;99.90
9497;DHT22;4786;51.270;4.456;2022-09-09T16:11:29;20.30;99.90
9497;DHT22;4786;51.270;4.456;2022-09-09T16:13:56;20.30;99.90
9497;DHT22;4786;51.270;4.456;2022-09-09T16:16:24;20.40;99.90
9497;DHT22;4786;51.270;4.456;2022-09-09T16:18:52;20.50;99.90
9497;DHT22;4786;51.270;4.456;2022-09-09T16:23:52;20.70;99.90
9497;DHT22;4786;51.270;4.456;2022-09-09T16:26:21;20.60;99.90
9497;DHT22;4786;51.270;4.456;2022-09-09T16:28:48;20.70;99.90
9497;DHT22;4786;51.270;4.456;2022-09-09T16:31:20;20.50;99.90
9497;DHT22;4786;51.270;4.456;2022-09-09T16:33:47;20.50;99.90
9497;DHT22;4786;51.270;4.456;2022-09-09T16:36:16;20.40;99.90
9497;DHT22;4786;51.270;4.456;2022-09-09T16:38:43;20.50;99.90
9497;DHT22;4786;51.270;4.456;2022-09-09T16:41:10;20.50;99.90
9497;DHT22;4786;51.270;4.456;2022-09-09T16:43:37;20.40;99.90
9497;DHT22;4786;51.270;4.456;2022-09-09T16:46:11;20.30;99.90
9497;DHT22;4786;51.270;4.456;2022-09-09T16:48:37;20.30;99.90
9497;DHT22;4786;51.270;4.456;2022-09-09T16:51:11;20.30;99.90
9497;DHT22;4786;51.270;4.456;2022-09-09T16:53:37;20.20;99.90
9497;DHT22;4786;51.270;4.456;2022-09-09T16:56:08;20.20;99.90
9497;DHT22;4786;51.270;4.456;2022-09-09T16:58:34;20.10;99.90
9497;DHT22;4786;51.270;4.456;2022-09-09T17:01:02;20.10;99.90
9497;DHT22;4786;51.270;4.456;2022-09-09T17:03:28;20.10;99.90
9497;DHT22;4786;51.270;4.456;2022-09-09T17:05:54;20.00;99.90
9497;DHT22;4786;51.270;4.456;2022-09-09T17:08:20;20.00;99.90
9497;DHT22;4786;51.270;4.456;2022-09-09T17:10:46;19.90;99.90
9497;DHT22;4786;51.270;4.456;2022-09-09T17:13:13;19.90;99.90
9497;DHT22;4786;51.270;4.456;2022-09-09T17:15:40;19.90;99.90
9497;DHT22;4786;51.270;4.456;2022-09-09T17:18:10;19.80;99.90
9497;DHT22;4786;51.270;4.456;2022-09-09T17:20:40;19.80;99.90
9497;DHT22;4786;51.270;4.456;2022-09-09T17:23:07;19.70;99.90
9497;DHT22;4786;51.270;4.456;2022-09-09T17:25:34;19.70;99.90
9497;DHT22;4786;51.270;4.456;2022-09-09T17:28:00;19.70;99.90
9497;DHT22;4786;51.270;4.456;2022-09-09T17:30:33;19.60;99.90
9497;DHT22;4786;51.270;4.456;2022-09-09T17:32:59;19.60;99.90
9497;DHT22;4786;51.270;4.456;2022-09-09T17:35:25;19.70;99.90
9497;DHT22;4786;51.270;4.456;2022-09-09T17:37:53;19.70;99.90
9497;DHT22;4786;51.270;4.456;2022-09-09T17:40:20;19.60;99.90
9497;DHT22;4786;51.270;4.456;2022-09-09T17:42:46;19.60;99.90
9497;DHT22;4786;51.270;4.456;2022-09-09T17:45:13;19.60;99.90
9497;DHT22;4786;51.270;4.456;2022-09-09T17:47:39;19.50;99.90
9497;DHT22;4786;51.270;4.456;2022-09-09T17:50:09;19.50;99.90
9497;DHT22;4786;51.270;4.456;2022-09-09T17:52:37;19.40;99.90
9497;DHT22;4786;51.270;4.456;2022-09-09T17:55:03;19.40;99.90
9497;DHT22;4786;51.270;4.456;2022-09-09T17:57:29;19.40;99.90
9497;DHT22;4786;51.270;4.456;2022-09-09T17:59:55;19.30;99.90
9497;DHT22;4786;51.270;4.456;2022-09-09T18:02:21;19.30;99.90
9497;DHT22;4786;51.270;4.456;2022-09-09T18:04:47;19.20;99.90
9497;DHT22;4786;51.270;4.456;2022-09-09T18:07:13;19.20;99.90
9497;DHT22;4786;51.270;4.456;2022-09-09T18:09:39;19.20;99.90
9497;DHT22;4786;51.270;4.456;2022-09-09T18:12:08;19.20;99.90
9497;DHT22;4786;51.270;4.456;2022-09-09T18:14:34;19.10;99.90
9497;DHT22;4786;51.270;4.456;2022-09-09T18:17:01;19.10;99.90
9497;DHT22;4786;51.270;4.456;2022-09-09T18:19:30;19.00;99.90
9497;DHT22;4786;51.270;4.456;2022-09-09T18:21:56;18.90;99.90
9497;DHT22;4786;51.270;4.456;2022-09-09T18:24:22;18.90;99.90
9497;DHT22;4786;51.270;4.456;2022-09-09T18:26:50;18.80;99.90
9497;DHT22;4786;51.270;4.456;2022-09-09T18:29:20;18.80;99.90
9497;DHT22;4786;51.270;4.456;2022-09-09T18:31:49;18.90;99.90
9497;DHT22;4786;51.270;4.456;2022-09-09T18:34:17;18.80;99.90
9497;DHT22;4786;51.270;4.456;2022-09-09T18:36:45;18.90;99.90
9497;DHT22;4786;51.270;4.456;2022-09-09T18:39:15;18.80;99.90
9497;DHT22;4786;51.270;4.456;2022-09-09T18:41:43;18.70;99.90
9497;DHT22;4786;51.270;4.456;2022-09-09T18:44:15;18.80;99.90
9497;DHT22;4786;51.270;4.456;2022-09-09T18:46:41;18.80;99.90
9497;DHT22;4786;51.270;4.456;2022-09-09T18:49:08;18.70;99.90
9497;DHT22;4786;51.270;4.456;2022-09-09T18:51:37;18.70;99.90
9497;DHT22;4786;51.270;4.456;2022-09-09T18:54:14;18.70;99.90